Time;durP1;ratioP1;P1;durP2;ratioP2;P2;SDS_P1;SDS_P2;PMS_P1;PMS_P2;Temp;Humidity;BMP_temperature;BMP_pressure;BME280_temperature;BME280_humidity;BME280_pressure;Samples;Min_cycle;Max_cycle;Signal;HPM_P1;HPM_P2
2023/06/22 00:01:44;;;;;;;4.72;4.32;;;25.40;91.10;;;;;;6207846;28;89138;-70
2023/06/22 00:04:46;;;;;;;5.65;5.03;;;25.50;91.10;;;;;;6201075;28;89363;-70
2023/06/22 00:07:49;;;;;;;4.93;4.47;;;25.40;91.10;;;;;;6193588;28;89984;-69
2023/06/22 00:10:51;;;;;;;5.22;4.72;;;25.50;91.10;;;;;;6197798;28;89445;-70
2023/06/22 00:13:53;;;;;;;5.53;5.03;;;25.50;91.20;;;;;;6205811;28;89063;-69
2023/06/22 00:16:57;;;;;;;5.63;5.10;;;25.50;91.10;;;;;;6206151;28;89234;-69
2023/06/22 00:20:00;;;;;;;5.63;5.05;;;25.50;91.10;;;;;;6207764;28;87687;-70
2023/06/22 00:23:07;;;;;;;7.13;5.60;;;25.50;91.10;;;;;;6199624;28;89087;-69
2023/06/22 00:26:10;;;;;;;5.82;5.30;;;25.50;91.10;;;;;;6202318;28;88776;-70
2023/06/22 00:29:12;;;;;;;5.97;5.35;;;25.50;91.20;;;;;;6205040;28;88426;-69
2023/06/22 00:32:14;;;;;;;5.45;4.90;;;25.50;91.20;;;;;;6204381;28;89048;-69
2023/06/22 00:35:16;;;;;;;5.70;5.20;;;25.50;91.10;;;;;;6197187;28;89939;-70
2023/06/22 00:38:19;;;;;;;5.93;5.32;;;25.50;91.50;;;;;;6200584;28;90085;-69
2023/06/22 00:41:21;;;;;;;6.07;5.57;;;25.50;91.20;;;;;;6208054;28;89175;-69
2023/06/22 00:44:23;;;;;;;6.25;5.65;;;25.40;91.10;;;;;;6206868;28;89067;-70
2023/06/22 00:47:25;;;;;;;5.90;5.35;;;25.50;91.20;;;;;;6202079;28;88198;-69
2023/06/22 00:50:33;;;;;;;5.80;5.30;;;25.50;91.10;;;;;;6199486;28;88936;-70
2023/06/22 00:53:37;;;;;;;5.70;5.20;;;25.50;91.10;;;;;;6205949;28;89152;-69
2023/06/22 00:56:38;;;;;;;5.50;5.00;;;25.50;91.10;;;;;;6206442;28;89045;-70
2023/06/22 00:59:40;;;;;;;6.40;5.63;;;25.50;91.10;;;;;;6206576;28;88298;-69
2023/06/22 01:02:45;;;;;;;6.22;5.63;;;25.50;91.10;;;;;;6199858;28;89039;-69
2023/06/22 01:05:49;;;;;;;5.95;5.43;;;25.40;91.10;;;;;;6193676;28;89095;-69
2023/06/22 01:09:01;;;;;;;6.43;5.80;;;25.50;91.10;;;;;;6187017;28;88885;-69
2023/06/22 01:12:07;;;;;;;6.05;5.45;;;25.50;91.10;;;;;;6187564;28;89058;-69
2023/06/22 01:15:12;;;;;;;5.97;5.43;;;25.50;91.10;;;;;;6193339;28;89072;-69
2023/06/22 01:18:15;;;;;;;6.28;5.68;;;25.50;91.10;;;;;;6207424;28;89129;-69
2023/06/22 01:21:20;;;;;;;6.88;6.25;;;25.50;91.10;;;;;;6207202;28;90177;-69
2023/06/22 01:24:28;;;;;;;6.50;5.80;;;25.50;91.10;;;;;;6204205;28;89269;-69
2023/06/22 01:27:41;;;;;;;6.63;6.00;;;25.50;91.20;;;;;;6204140;28;88935;-69
2023/06/22 01:30:47;;;;;;;6.97;6.32;;;25.50;91.10;;;;;;6205847;28;88295;-69
2023/06/22 01:33:53;;;;;;;6.65;6.05;;;25.50;91.10;;;;;;6201452;28;87965;-70
2023/06/22 01:36:56;;;;;;;6.75;5.97;;;25.50;91.20;;;;;;6194495;28;89107;-69
2023/06/22 01:39:59;;;;;;;6.50;5.90;;;25.50;91.20;;;;;;6205347;28;89684;-69
2023/06/22 01:43:02;;;;;;;6.68;6.07;;;25.50;91.10;;;;;;6189455;28;89098;-69
2023/06/22 01:46:05;;;;;;;6.47;5.88;;;25.50;91.10;;;;;;6207194;28;89139;-69
2023/06/22 01:49:08;;;;;;;6.72;6.13;;;25.50;91.10;;;;;;6199170;28;88011;-70
2023/06/22 01:52:10;;;;;;;6.45;5.85;;;25.50;91.10;;;;;;6202272;28;89495;-69
2023/06/22 01:55:12;;;;;;;6.90;6.20;;;25.50;91.10;;;;;;6193329;28;89036;-69
2023/06/22 01:58:15;;;;;;;6.80;6.13;;;25.50;91.10;;;;;;6201215;28;88329;-70
2023/06/22 02:01:24;;;;;;;6.85;6.18;;;25.50;91.10;;;;;;6204984;28;88307;-69
2023/06/22 02:04:35;;;;;;;6.30;5.70;;;25.50;91.10;;;;;;6204315;28;88273;-70
2023/06/22 02:07:45;;;;;;;6.82;6.13;;;25.50;91.10;;;;;;6187496;28;87971;-70
2023/06/22 02:10:49;;;;;;;6.93;6.32;;;25.50;91.10;;;;;;6202106;28;90300;-70
2023/06/22 02:13:51;;;;;;;7.10;6.45;;;25.50;91.10;;;;;;6206853;28;88371;-70
2023/06/22 02:16:58;;;;;;;7.32;6.63;;;25.50;91.20;;;;;;6198374;28;89657;-70
2023/06/22 02:20:02;;;;;;;7.40;6.70;;;25.50;91.10;;;;;;6198956;28;89211;-70
2023/06/22 02:23:04;;;;;;;7.57;6.78;;;25.50;91.20;;;;;;6205342;28;89094;-70
2023/06/22 02:26:06;;;;;;;7.47;6.78;;;25.50;91.10;;;;;;6200326;28;89050;-70
2023/06/22 02:29:08;;;;;;;7.50;6.80;;;25.50;91.10;;;;;;6204990;28;89445;-70
2023/06/22 02:32:12;;;;;;;7.32;6.63;;;25.50;91.20;;;;;;6197358;28;88353;-70
2023/06/22 02:35:14;;;;;;;7.65;6.95;;;25.50;91.10;;;;;;6206809;28;88969;-70
2023/06/22 02:38:17;;;;;;;7.30;6.60;;;25.50;91.10;;;;;;6202771;28;89240;-70
2023/06/22 02:41:19;;;;;;;8.00;7.00;;;25.50;91.10;;;;;;6197105;28;90144;-70
2023/06/22 02:44:21;;;;;;;7.85;7.15;;;25.50;91.10;;;;;;6201141;28;89233;-70
2023/06/22 02:47:25;;;;;;;7.88;7.10;;;25.50;91.10;;;;;;6198140;28;88886;-70
2023/06/22 02:50:27;;;;;;;7.40;6.72;;;25.50;91.10;;;;;;6194752;28;89082;-70
2023/06/22 02:53:29;;;;;;;7.28;6.57;;;25.50;91.10;;;;;;6208127;28;89182;-70
2023/06/22 02:56:31;;;;;;;7.40;6.70;;;25.50;91.10;;;;;;6208752;28;89082;-70
2023/06/22 02:59:33;;;;;;;7.53;6.82;;;25.50;91.10;;;;;;6202574;28;87950;-70
2023/06/22 03:02:36;;;;;;;7.25;6.53;;;25.50;91.10;;;;;;6200119;28;88457;-69
2023/06/22 03:05:40;;;;;;;7.25;6.55;;;25.50;91.10;;;;;;6204264;28;89083;-70
2023/06/22 03:08:42;;;;;;;8.02;7.22;;;25.50;91.10;;;;;;6194019;28;89154;-70
2023/06/22 03:11:44;;;;;;;8.80;7.90;;;25.50;91.10;;;;;;6205406;28;88851;-70
2023/06/22 03:14:46;;;;;;;8.38;7.53;;;25.50;91.10;;;;;;6197926;28;89219;-69
2023/06/22 03:17:49;;;;;;;8.35;7.57;;;25.50;91.10;;;;;;6208665;28;89115;-69
2023/06/22 03:20:51;;;;;;;7.75;7.05;;;25.50;91.10;;;;;;6196021;28;89047;-70
2023/06/22 03:23:53;;;;;;;8.05;7.35;;;25.50;91.20;;;;;;6205460;28;89380;-69
2023/06/22 03:26:56;;;;;;;8.38;7.57;;;25.50;91.20;;;;;;6206749;28;89122;-69
2023/06/22 03:29:58;;;;;;;7.55;6.85;;;25.60;91.20;;;;;;6207257;28;88996;-69
2023/06/22 03:33:03;;;;;;;8.15;7.45;;;25.50;91.10;;;;;;6207548;28;87421;-69
2023/06/22 03:36:05;;;;;;;7.90;7.20;;;25.50;91.10;;;;;;6195904;28;89641;-70
2023/06/22 03:39:07;;;;;;;8.05;7.32;;;25.50;91.10;;;;;;6201131;28;89108;-69
2023/06/22 03:42:09;;;;;;;8.32;7.53;;;25.50;91.10;;;;;;6196384;28;90364;-69
2023/06/22 03:45:11;;;;;;;8.35;7.55;;;25.50;91.10;;;;;;6207201;28;87975;-70
2023/06/22 03:48:15;;;;;;;8.38;7.68;;;25.50;91.10;;;;;;6206672;28;87981;-69
2023/06/22 03:51:17;;;;;;;7.88;7.07;;;25.50;91.10;;;;;;6207677;28;89188;-69
2023/06/22 03:54:19;;;;;;;8.43;7.65;;;25.50;91.10;;;;;;6207745;28;89342;-69
2023/06/22 03:57:21;;;;;;;8.43;7.63;;;25.50;91.20;;;;;;6206978;28;89086;-69
2023/06/22 04:00:23;;;;;;;7.97;7.18;;;25.50;91.20;;;;;;6194962;28;89097;-69
2023/06/22 04:03:26;;;;;;;8.75;7.95;;;25.50;91.20;;;;;;6208086;28;88350;-67
2023/06/22 04:06:29;;;;;;;8.50;7.70;;;25.50;91.20;;;;;;6197091;28;88986;-69
2023/06/22 04:09:30;;;;;;;9.05;8.18;;;25.50;91.20;;;;;;6196158;28;89058;-69
2023/06/22 04:12:32;;;;;;;8.77;7.97;;;25.50;91.20;;;;;;6200702;28;90045;-70
2023/06/22 04:15:34;;;;;;;8.70;7.90;;;25.50;91.20;;;;;;6200044;28;89091;-69
2023/06/22 04:18:38;;;;;;;8.20;7.50;;;25.50;91.30;;;;;;6200854;28;89061;-69
2023/06/22 04:21:40;;;;;;;8.77;7.90;;;25.50;91.30;;;;;;6207231;28;89040;-70
2023/06/22 04:24:42;;;;;;;8.82;8.02;;;25.50;91.30;;;;;;6205588;28;89312;-69
2023/06/22 04:27:44;;;;;;;9.02;8.13;;;25.50;91.30;;;;;;6206130;28;89209;-70
2023/06/22 04:30:47;;;;;;;9.07;8.27;;;25.50;91.30;;;;;;6194419;28;89119;-69
2023/06/22 04:33:51;;;;;;;9.20;8.35;;;25.50;91.30;;;;;;6206687;28;88413;-70
2023/06/22 04:36:53;;;;;;;9.23;8.32;;;25.50;91.30;;;;;;6204945;28;89929;-69
2023/06/22 04:39:55;;;;;;;9.20;8.30;;;25.50;91.30;;;;;;6195938;28;89034;-70
2023/06/22 04:42:57;;;;;;;9.60;8.63;;;25.50;91.20;;;;;;6182959;28;89072;-70
2023/06/22 04:46:03;;;;;;;8.82;8.02;;;25.50;91.20;;;;;;6204233;28;89407;-70
2023/06/22 04:49:09;;;;;;;8.90;8.10;;;25.50;91.20;;;;;;6196266;28;88968;-70
2023/06/22 04:52:13;;;;;;;8.65;7.82;;;25.50;91.10;;;;;;6207959;28;91223;-70
2023/06/22 04:55:18;;;;;;;8.93;8.13;;;25.50;91.10;;;;;;6206944;28;89131;-70
2023/06/22 04:58:21;;;;;;;9.30;8.50;;;25.50;91.10;;;;;;6205143;28;89095;-70
2023/06/22 05:01:23;;;;;;;9.38;8.50;;;25.50;91.20;;;;;;6195032;28;89392;-69
2023/06/22 05:04:28;;;;;;;9.15;8.25;;;25.50;91.20;;;;;;6206611;28;88325;-70
2023/06/22 05:07:29;;;;;;;8.85;8.02;;;25.50;91.20;;;;;;6199964;28;87942;-69
2023/06/22 05:10:31;;;;;;;8.90;8.00;;;25.50;91.20;;;;;;6198989;28;89591;-70
2023/06/22 05:13:34;;;;;;;8.80;8.00;;;25.50;91.20;;;;;;6203730;28;89965;-69
2023/06/22 05:16:36;;;;;;;9.35;8.43;;;25.50;91.20;;;;;;6198526;28;87946;-69
2023/06/22 05:19:39;;;;;;;8.80;7.97;;;25.50;91.20;;;;;;6202044;28;89196;-70
2023/06/22 05:22:42;;;;;;;8.63;7.72;;;25.50;91.20;;;;;;6187466;28;89059;-70
2023/06/22 05:25:44;;;;;;;8.55;7.75;;;25.50;91.20;;;;;;6199400;28;88421;-70
2023/06/22 05:28:47;;;;;;;8.77;7.97;;;25.50;91.20;;;;;;6191505;28;89355;-69
2023/06/22 05:31:49;;;;;;;8.82;8.02;;;25.60;91.20;;;;;;6206754;28;89041;-69
2023/06/22 05:34:52;;;;;;;8.50;7.65;;;25.60;91.20;;;;;;6206724;28;87260;-70
2023/06/22 05:37:55;;;;;;;9.13;8.23;;;25.60;91.30;;;;;;6202006;28;89069;-69
2023/06/22 05:40:57;;;;;;;8.98;7.75;;;25.60;91.30;;;;;;6196401;28;87759;-69
2023/06/22 05:43:59;;;;;;;8.35;7.57;;;25.60;91.20;;;;;;6192289;28;90660;-69
2023/06/22 05:47:01;;;;;;;8.55;7.75;;;25.60;91.30;;;;;;6195746;28;89090;-69
2023/06/22 05:50:06;;;;;;;8.32;7.53;;;25.60;91.20;;;;;;6185037;28;89062;-69
2023/06/22 05:53:08;;;;;;;8.05;7.32;;;25.60;91.20;;;;;;6200599;28;89142;-69
2023/06/22 05:56:10;;;;;;;8.00;7.22;;;25.60;91.30;;;;;;6205361;28;89165;-69
2023/06/22 05:59:13;;;;;;;8.63;7.82;;;25.60;91.30;;;;;;6204985;28;89001;-70
2023/06/22 06:02:15;;;;;;;8.07;7.38;;;25.60;91.30;;;;;;6205639;28;89071;-69
2023/06/22 06:05:19;;;;;;;8.57;7.68;;;25.60;91.30;;;;;;6203502;28;88275;-70
2023/06/22 06:08:21;;;;;;;8.50;7.57;;;25.60;91.30;;;;;;6204075;28;89257;-69
2023/06/22 06:11:23;;;;;;;8.45;7.65;;;25.70;91.30;;;;;;6194571;28;89154;-69
2023/06/22 06:14:26;;;;;;;8.38;7.57;;;25.60;91.20;;;;;;6197511;28;90050;-69
2023/06/22 06:17:28;;;;;;;8.20;7.40;;;25.70;91.20;;;;;;6191789;28;89199;-69
2023/06/22 06:20:32;;;;;;;8.10;7.30;;;25.70;91.20;;;;;;6205031;28;87944;-70
2023/06/22 06:23:34;;;;;;;7.50;6.80;;;25.70;91.20;;;;;;6203733;28;89943;-69
2023/06/22 06:26:36;;;;;;;7.90;7.10;;;25.70;91.30;;;;;;6204289;28;88920;-70
2023/06/22 06:29:37;;;;;;;8.13;7.30;;;25.70;91.20;;;;;;6189638;28;89061;-69
2023/06/22 06:32:39;;;;;;;8.15;7.35;;;25.60;91.20;;;;;;6205638;28;89058;-69
2023/06/22 06:35:43;;;;;;;7.97;7.05;;;25.70;91.30;;;;;;6203812;28;88346;-69
2023/06/22 06:38:46;;;;;;;7.70;6.70;;;25.70;91.30;;;;;;6203882;28;89134;-69
2023/06/22 06:41:48;;;;;;;8.30;7.50;;;25.70;91.30;;;;;;6192260;28;89325;-69
2023/06/22 06:44:50;;;;;;;8.23;7.15;;;25.70;91.30;;;;;;6188446;28;90015;-69
2023/06/22 06:47:53;;;;;;;7.85;7.00;;;25.70;91.30;;;;;;6196501;28;89411;-69
2023/06/22 06:50:56;;;;;;;8.07;7.28;;;25.70;91.30;;;;;;6203134;28;89082;-69
2023/06/22 06:53:58;;;;;;;8.02;7.22;;;25.70;91.30;;;;;;6181376;28;89127;-69
2023/06/22 06:57:02;;;;;;;7.57;6.88;;;25.70;91.30;;;;;;6205786;28;88986;-69
2023/06/22 07:00:10;;;;;;;7.60;6.90;;;25.70;91.30;;;;;;6194580;28;89166;-69
2023/06/22 07:03:12;;;;;;;7.05;6.45;;;25.70;91.30;;;;;;6208796;28;89467;-69
2023/06/22 07:06:16;;;;;;;8.00;7.20;;;25.70;91.30;;;;;;6202751;28;88463;-69
2023/06/22 07:09:18;;;;;;;7.70;6.97;;;25.70;91.30;;;;;;6208837;28;90031;-69
2023/06/22 07:12:20;;;;;;;7.47;6.78;;;25.70;91.20;;;;;;6194794;28;87793;-69
2023/06/22 07:15:23;;;;;;;7.65;6.95;;;25.70;91.20;;;;;;6201638;28;90032;-69
2023/06/22 07:18:26;;;;;;;8.35;6.78;;;25.70;91.20;;;;;;6199738;28;89024;-69
2023/06/22 07:21:29;;;;;;;7.43;6.70;;;25.70;91.20;;;;;;6208727;28;88581;-69
2023/06/22 07:24:32;;;;;;;7.68;6.88;;;25.80;91.30;;;;;;6208240;28;89378;-70
2023/06/22 07:27:35;;;;;;;7.15;6.45;;;25.70;91.20;;;;;;6207814;28;89669;-70
2023/06/22 07:30:37;;;;;;;7.95;7.15;;;25.70;91.30;;;;;;6207400;28;89033;-69
2023/06/22 07:33:39;;;;;;;7.38;6.68;;;25.80;91.30;;;;;;6206402;28;89944;-70
2023/06/22 07:36:43;;;;;;;7.68;6.88;;;25.80;91.30;;;;;;6199940;28;88358;-70
2023/06/22 07:39:44;;;;;;;7.45;6.70;;;25.80;91.30;;;;;;6206827;28;89067;-69
2023/06/22 07:42:48;;;;;;;8.48;7.10;;;25.70;91.30;;;;;;6186707;28;89374;-69
2023/06/22 07:45:52;;;;;;;7.30;6.60;;;25.70;91.30;;;;;;6208594;28;90383;-69
2023/06/22 07:48:53;;;;;;;7.60;6.80;;;25.70;91.30;;;;;;6196242;28;91013;-69
2023/06/22 07:51:57;;;;;;;7.32;6.63;;;25.70;91.30;;;;;;6208323;28;89235;-69
2023/06/22 07:54:59;;;;;;;6.93;6.32;;;25.70;91.30;;;;;;6203471;28;87991;-69
2023/06/22 07:58:01;;;;;;;6.97;6.35;;;25.70;91.30;;;;;;6206829;28;89151;-70
2023/06/22 08:01:03;;;;;;;7.25;6.55;;;25.70;91.30;;;;;;6206033;28;88980;-69
2023/06/22 08:04:06;;;;;;;6.50;5.90;;;25.70;91.30;;;;;;6197004;28;89059;-70
2023/06/22 08:07:10;;;;;;;7.18;6.47;;;25.70;91.30;;;;;;6207332;28;88728;-69
2023/06/22 08:10:13;;;;;;;6.72;6.13;;;25.80;91.40;;;;;;6195192;28;89271;-69
2023/06/22 08:13:15;;;;;;;6.95;6.25;;;25.80;91.30;;;;;;6206565;28;89099;-70
2023/06/22 08:16:17;;;;;;;7.13;6.43;;;25.80;91.30;;;;;;6189953;28;90504;-69
2023/06/22 08:19:19;;;;;;;6.75;6.13;;;25.80;91.40;;;;;;6186027;28;89079;-70
2023/06/22 08:22:22;;;;;;;7.05;6.38;;;25.80;91.40;;;;;;6204753;28;89403;-70
2023/06/22 08:25:24;;;;;;;7.10;6.43;;;25.70;91.30;;;;;;6196275;28;89032;-69
2023/06/22 08:28:26;;;;;;;6.38;5.78;;;25.80;91.40;;;;;;6207556;28;89030;-69
2023/06/22 08:31:28;;;;;;;6.95;6.30;;;25.80;91.40;;;;;;6196104;28;89023;-69
2023/06/22 08:34:30;;;;;;;6.75;6.05;;;25.80;91.40;;;;;;6182700;28;89081;-69
2023/06/22 08:37:35;;;;;;;6.90;6.30;;;25.80;91.40;;;;;;6198256;28;88312;-69
2023/06/22 08:40:37;;;;;;;7.45;5.95;;;25.70;91.40;;;;;;6202077;28;89426;-69
2023/06/22 08:43:39;;;;;;;6.38;5.82;;;25.70;91.40;;;;;;6207286;28;89095;-69
2023/06/22 08:46:41;;;;;;;6.60;6.00;;;25.80;91.40;;;;;;6200011;28;90128;-69
2023/06/22 08:49:43;;;;;;;6.45;5.53;;;25.80;91.40;;;;;;6201247;28;89359;-69
2023/06/22 08:52:47;;;;;;;6.50;5.90;;;25.70;91.40;;;;;;6190915;28;89029;-69
2023/06/22 08:55:50;;;;;;;6.63;6.00;;;25.80;91.40;;;;;;6198501;28;89072;-69
2023/06/22 08:58:52;;;;;;;7.00;6.28;;;25.80;91.40;;;;;;6206453;28;89273;-70
2023/06/22 09:01:54;;;;;;;6.70;6.00;;;25.70;91.40;;;;;;6194955;28;89102;-69
2023/06/22 09:04:57;;;;;;;6.30;5.70;;;25.80;91.40;;;;;;6206815;28;89335;-69
2023/06/22 09:08:00;;;;;;;6.30;5.70;;;25.80;91.40;;;;;;6182830;28;88330;-69
2023/06/22 09:11:03;;;;;;;6.32;5.72;;;25.80;91.40;;;;;;6203733;28;89125;-69
2023/06/22 09:14:05;;;;;;;6.95;6.25;;;25.80;91.40;;;;;;6199693;28;87897;-69
2023/06/22 09:17:07;;;;;;;6.40;5.80;;;25.80;91.40;;;;;;6206567;28;90050;-69
2023/06/22 09:20:10;;;;;;;6.65;5.95;;;25.80;91.40;;;;;;6196460;28;89229;-69
2023/06/22 09:23:14;;;;;;;7.32;5.93;;;25.80;91.40;;;;;;6196845;28;89045;-69
2023/06/22 09:26:16;;;;;;;6.30;5.70;;;25.80;91.40;;;;;;6196493;28;89181;-70
2023/06/22 09:29:19;;;;;;;6.55;5.80;;;25.80;91.50;;;;;;6190268;28;88746;-69
2023/06/22 09:32:21;;;;;;;6.93;6.10;;;25.80;91.50;;;;;;6205910;28;89113;-69
2023/06/22 09:35:23;;;;;;;6.55;5.88;;;25.80;91.50;;;;;;6192149;28;88989;-69
2023/06/22 09:38:26;;;;;;;6.25;5.60;;;25.80;91.50;;;;;;6195679;28;88218;-69
2023/06/22 09:41:28;;;;;;;6.70;5.60;;;25.80;91.50;;;;;;6204186;28;90473;-69
2023/06/22 09:44:30;;;;;;;6.03;5.43;;;25.80;91.50;;;;;;6193291;28;88221;-70
2023/06/22 09:47:32;;;;;;;6.38;5.72;;;25.80;91.40;;;;;;6192333;28;90116;-69
2023/06/22 09:50:34;;;;;;;6.32;5.72;;;25.80;91.50;;;;;;6206393;28;87976;-69
2023/06/22 09:53:38;;;;;;;6.07;5.45;;;25.80;91.40;;;;;;6181961;28;89071;-69
2023/06/22 09:56:40;;;;;;;6.65;6.00;;;25.80;91.50;;;;;;6203767;28;88241;-69
2023/06/22 09:59:42;;;;;;;6.30;5.65;;;25.80;91.50;;;;;;6192664;28;89523;-69
2023/06/22 10:02:44;;;;;;;6.15;5.43;;;25.80;91.40;;;;;;6204500;28;89502;-70
2023/06/22 10:05:46;;;;;;;6.47;5.88;;;25.80;91.40;;;;;;6204737;28;89166;-69
2023/06/22 10:08:51;;;;;;;5.95;5.40;;;25.80;91.40;;;;;;6205725;28;88284;-69
2023/06/22 10:11:53;;;;;;;6.10;5.50;;;25.80;91.40;;;;;;6204168;28;89139;-69
2023/06/22 10:14:55;;;;;;;6.82;5.78;;;25.80;91.40;;;;;;6199149;28;89069;-69
2023/06/22 10:17:57;;;;;;;6.00;5.28;;;25.80;91.50;;;;;;6198817;28;88907;-69
2023/06/22 10:20:59;;;;;;;6.22;5.63;;;25.80;91.50;;;;;;6186382;28;89036;-69
2023/06/22 10:24:05;;;;;;;5.95;5.35;;;25.80;91.50;;;;;;6189664;28;88177;-69
2023/06/22 10:27:08;;;;;;;6.30;5.65;;;25.80;91.50;;;;;;6193161;28;89653;-69
2023/06/22 10:30:12;;;;;;;6.47;5.47;;;25.80;91.50;;;;;;6195859;28;88929;-69
2023/06/22 10:33:14;;;;;;;6.05;5.45;;;25.80;91.60;;;;;;6209139;28;88989;-69
2023/06/22 10:36:16;;;;;;;5.75;5.25;;;25.80;91.60;;;;;;6209198;28;89255;-69
2023/06/22 10:39:19;;;;;;;6.05;5.32;;;25.80;91.50;;;;;;6207833;28;88594;-69
2023/06/22 10:42:21;;;;;;;6.35;5.28;;;25.80;91.50;;;;;;6204259;28;89110;-69
2023/06/22 10:45:23;;;;;;;5.68;5.18;;;25.80;91.60;;;;;;6210054;28;90429;-69
2023/06/22 10:48:25;;;;;;;5.80;5.30;;;25.80;91.50;;;;;;6208412;28;89980;-70
2023/06/22 10:51:28;;;;;;;6.30;5.50;;;25.80;91.50;;;;;;6209191;28;89158;-70
2023/06/22 10:54:32;;;;;;;5.97;5.38;;;25.80;91.50;;;;;;6209393;28;88016;-69
2023/06/22 10:57:34;;;;;;;5.85;5.30;;;25.80;91.50;;;;;;6208817;28;89167;-70
2023/06/22 11:00:36;;;;;;;6.97;6.00;;;25.80;91.50;;;;;;6206509;28;89319;-69
2023/06/22 11:03:38;;;;;;;7.80;5.85;;;25.80;91.50;;;;;;6196011;28;88741;-69
2023/06/22 11:06:40;;;;;;;5.68;5.18;;;25.80;91.50;;;;;;6208645;28;89038;-69
2023/06/22 11:09:44;;;;;;;5.55;5.05;;;25.80;91.50;;;;;;6208375;28;88361;-70
2023/06/22 11:12:46;;;;;;;5.72;5.20;;;25.80;91.50;;;;;;6208292;28;89086;-70
2023/06/22 11:15:48;;;;;;;6.82;6.07;;;25.80;91.60;;;;;;6201051;28;89068;-69
2023/06/22 11:18:50;;;;;;;5.70;5.10;;;25.80;91.60;;;;;;6207753;28;89919;-69
2023/06/22 11:21:52;;;;;;;5.90;5.30;;;25.80;91.60;;;;;;6209118;28;89130;-70
2023/06/22 11:24:55;;;;;;;5.80;5.20;;;25.80;91.60;;;;;;6208637;28;88706;-69
2023/06/22 11:27:57;;;;;;;5.85;5.20;;;25.80;91.60;;;;;;6206944;28;89108;-69
2023/06/22 11:31:00;;;;;;;5.55;5.05;;;25.80;91.60;;;;;;6208528;28;88977;-69
2023/06/22 11:34:02;;;;;;;5.47;4.97;;;25.80;91.60;;;;;;6203611;28;87954;-69
2023/06/22 11:37:04;;;;;;;6.45;5.30;;;25.80;91.60;;;;;;6199679;28;89039;-69
2023/06/22 11:40:09;;;;;;;6.38;5.18;;;25.80;91.60;;;;;;6208271;28;88268;-69
2023/06/22 11:43:11;;;;;;;5.60;5.10;;;25.80;91.60;;;;;;6199975;28;89048;-70
2023/06/22 11:46:13;;;;;;;6.50;5.30;;;25.80;91.60;;;;;;6194053;28;89861;-70
2023/06/22 11:49:15;;;;;;;7.25;5.38;;;25.80;91.60;;;;;;6208115;28;90269;-70
2023/06/22 11:52:19;;;;;;;5.70;5.10;;;25.90;91.60;;;;;;6207174;28;88290;-69
2023/06/22 11:55:22;;;;;;;6.10;5.50;;;25.80;91.50;;;;;;6195642;28;89088;-67
2023/06/22 11:58:24;;;;;;;5.85;5.25;;;25.90;91.60;;;;;;6208386;28;89463;-67
2023/06/22 12:01:26;;;;;;;5.90;5.10;;;25.80;91.60;;;;;;6207201;28;89147;-67
2023/06/22 12:04:28;;;;;;;5.53;5.00;;;25.80;91.60;;;;;;6206728;28;89072;-68
2023/06/22 12:07:30;;;;;;;5.40;4.90;;;25.90;91.70;;;;;;6206940;28;87962;-68
2023/06/22 12:10:34;;;;;;;5.82;5.22;;;25.80;91.60;;;;;;6207639;28;88619;-67
2023/06/22 12:13:36;;;;;;;6.03;4.85;;;25.80;91.60;;;;;;6207919;28;89439;-68
2023/06/22 12:16:38;;;;;;;5.80;5.22;;;25.80;91.60;;;;;;6206762;28;89514;-67
2023/06/22 12:19:40;;;;;;;5.47;4.90;;;25.80;91.60;;;;;;6206771;28;89713;-68
2023/06/22 12:22:42;;;;;;;5.32;4.82;;;25.80;91.60;;;;;;6207635;28;88432;-67
2023/06/22 12:25:47;;;;;;;5.63;4.55;;;25.80;91.60;;;;;;6198541;28;89340;-67
2023/06/22 12:28:49;;;;;;;6.65;5.30;;;25.80;91.60;;;;;;6199321;28;89118;-67
2023/06/22 12:31:51;;;;;;;6.50;4.97;;;25.80;91.60;;;;;;6197670;28;89499;-67
2023/06/22 12:34:53;;;;;;;5.63;4.85;;;25.90;91.70;;;;;;6195653;28;89084;-68
2023/06/22 12:37:55;;;;;;;5.15;4.65;;;25.80;91.60;;;;;;6191169;28;87893;-67
2023/06/22 12:40:58;;;;;;;5.45;4.95;;;25.90;91.70;;;;;;6188272;28;86765;-67
2023/06/22 12:44:01;;;;;;;5.80;5.20;;;25.90;91.70;;;;;;6206311;28;89053;-67
2023/06/22 12:47:03;;;;;;;5.80;4.70;;;25.90;91.60;;;;;;6193740;28;88889;-67
2023/06/22 12:50:06;;;;;;;5.53;4.93;;;25.90;91.60;;;;;;6205693;28;90007;-67
2023/06/22 12:53:08;;;;;;;5.68;4.93;;;25.90;91.60;;;;;;6205775;28;89365;-67
2023/06/22 12:56:11;;;;;;;5.43;4.93;;;25.90;91.70;;;;;;6200191;28;89151;-67
2023/06/22 12:59:13;;;;;;;5.10;4.60;;;25.90;91.70;;;;;;6200343;28;88234;-67
2023/06/22 13:02:15;;;;;;;5.25;4.40;;;25.80;91.60;;;;;;6197857;28;89281;-67
2023/06/22 13:05:17;;;;;;;5.53;4.97;;;25.90;91.70;;;;;;6206151;28;89559;-67
2023/06/22 13:08:19;;;;;;;5.07;4.53;;;25.90;91.70;;;;;;6193973;28;89012;-67
2023/06/22 13:11:22;;;;;;;5.20;4.70;;;25.80;91.60;;;;;;6194898;28;87183;-67
2023/06/22 13:14:24;;;;;;;5.78;4.90;;;25.90;91.70;;;;;;6205618;28;89010;-67
2023/06/22 13:17:26;;;;;;;5.00;4.50;;;25.90;91.70;;;;;;6193807;28;89018;-67
2023/06/22 13:20:30;;;;;;;5.53;4.78;;;25.90;91.70;;;;;;6205567;28;89221;-67
2023/06/22 13:23:32;;;;;;;5.72;4.55;;;25.90;91.70;;;;;;6206680;28;89848;-67
2023/06/22 13:26:35;;;;;;;5.30;4.75;;;25.90;91.70;;;;;;6202030;28;89104;-67
2023/06/22 13:29:37;;;;;;;4.93;4.53;;;25.90;91.70;;;;;;6203276;28;89108;-67
2023/06/22 13:32:41;;;;;;;6.45;4.90;;;25.90;91.70;;;;;;6206288;28;89171;-67
2023/06/22 13:35:43;;;;;;;4.75;4.35;;;25.90;91.70;;;;;;6206477;28;89578;-68
2023/06/22 13:38:45;;;;;;;5.18;4.68;;;25.90;91.70;;;;;;6197986;28;89645;-67
2023/06/22 13:41:48;;;;;;;5.70;5.05;;;25.90;91.70;;;;;;6196521;28;88453;-68
2023/06/22 13:44:50;;;;;;;4.90;4.50;;;25.90;91.70;;;;;;6196712;28;90120;-68
2023/06/22 13:47:55;;;;;;;5.40;4.40;;;25.90;91.60;;;;;;6197440;28;89149;-67
2023/06/22 13:50:57;;;;;;;5.85;4.88;;;25.90;91.70;;;;;;6199975;28;90018;-68
2023/06/22 13:53:59;;;;;;;5.78;4.85;;;25.90;91.70;;;;;;6202228;28;89290;-67
2023/06/22 13:57:02;;;;;;;5.38;4.88;;;25.90;91.70;;;;;;6198793;28;89047;-68
2023/06/22 14:00:06;;;;;;;4.95;4.45;;;26.00;91.80;;;;;;6201845;28;89008;-68
2023/06/22 14:03:07;;;;;;;5.45;4.90;;;26.00;91.80;;;;;;6203907;28;89164;-68
2023/06/22 14:06:11;;;;;;;5.20;4.70;;;25.90;91.70;;;;;;6204337;28;89009;-68
2023/06/22 14:09:13;;;;;;;5.45;4.35;;;25.90;91.70;;;;;;6204783;28;87927;-68
2023/06/22 14:12:17;;;;;;;5.50;5.00;;;26.00;91.80;;;;;;6204243;28;88386;-68
2023/06/22 14:15:19;;;;;;;5.07;4.57;;;25.90;91.80;;;;;;6205298;28;89201;-68
2023/06/22 14:18:22;;;;;;;6.82;5.10;;;26.00;91.80;;;;;;6204394;28;89380;-68
2023/06/22 14:21:24;;;;;;;5.53;5.00;;;25.90;91.70;;;;;;6191092;28;89977;-68
2023/06/22 14:24:26;;;;;;;4.80;4.38;;;26.00;91.80;;;;;;6199749;28;87957;-68
2023/06/22 14:27:30;;;;;;;5.30;4.35;;;25.90;91.80;;;;;;6203633;28;89122;-68
2023/06/22 14:30:32;;;;;;;5.05;4.55;;;25.90;91.80;;;;;;6205569;28;89336;-68
2023/06/22 14:33:34;;;;;;;5.68;4.60;;;25.90;91.80;;;;;;6205058;28;89124;-68
2023/06/22 14:36:36;;;;;;;4.95;4.45;;;26.00;91.80;;;;;;6205032;28;89040;-68
2023/06/22 14:39:39;;;;;;;5.47;4.60;;;26.00;91.80;;;;;;6195460;28;89362;-68
2023/06/22 14:42:42;;;;;;;5.22;4.70;;;26.00;91.70;;;;;;6201305;28;88362;-68
2023/06/22 14:45:44;;;;;;;5.00;4.38;;;26.00;91.80;;;;;;6204398;28;89090;-69
2023/06/22 14:48:46;;;;;;;5.18;4.78;;;26.00;91.80;;;;;;6204599;28;89046;-68
2023/06/22 14:51:48;;;;;;;6.00;4.40;;;26.00;91.90;;;;;;6201958;28;89951;-68
2023/06/22 14:54:52;;;;;;;4.93;4.43;;;26.00;92.30;;;;;;6198727;28;89045;-68
2023/06/22 14:57:55;;;;;;;5.95;4.78;;;26.00;91.90;;;;;;6194360;28;89177;-68
2023/06/22 15:00:57;;;;;;;5.47;4.68;;;26.00;91.90;;;;;;6194286;28;89077;-68
2023/06/22 15:03:59;;;;;;;5.00;4.50;;;26.00;91.90;;;;;;6194469;28;89108;-68
2023/06/22 15:07:01;;;;;;;5.93;4.80;;;26.00;91.90;;;;;;6196894;28;89293;-68
2023/06/22 15:10:03;;;;;;;5.10;4.60;;;26.00;91.90;;;;;;6197882;28;88750;-68
2023/06/22 15:13:07;;;;;;;4.97;4.47;;;26.00;91.90;;;;;;6201623;28;88439;-68
2023/06/22 15:16:09;;;;;;;4.78;4.28;;;26.00;91.90;;;;;;6204720;28;89065;-68
2023/06/22 15:19:12;;;;;;;5.10;4.60;;;26.00;91.90;;;;;;6202902;28;88976;-68
2023/06/22 15:22:16;;;;;;;4.93;4.47;;;26.00;92.00;;;;;;6207644;28;90003;-68
2023/06/22 15:25:18;;;;;;;5.15;4.63;;;26.00;92.00;;;;;;6207026;28;88192;-68
2023/06/22 15:28:22;;;;;;;4.65;4.25;;;26.00;92.00;;;;;;6207924;28;89165;-67
2023/06/22 15:31:24;;;;;;;4.63;4.20;;;26.00;92.00;;;;;;6206010;28;87913;-67
2023/06/22 15:34:26;;;;;;;5.22;4.72;;;26.00;91.90;;;;;;6204170;28;89319;-68
2023/06/22 15:37:28;;;;;;;5.18;4.78;;;26.00;91.90;;;;;;6208898;28;89116;-68
2023/06/22 15:40:29;;;;;;;5.53;4.70;;;26.00;91.90;;;;;;6191986;28;89365;-68
2023/06/22 15:43:33;;;;;;;5.35;4.85;;;26.00;92.00;;;;;;6196961;28;88325;-68
2023/06/22 15:46:35;;;;;;;5.70;4.85;;;26.00;92.00;;;;;;6190170;28;89057;-68
2023/06/22 15:49:37;;;;;;;4.97;4.50;;;26.00;92.00;;;;;;6207292;28;89140;-68
2023/06/22 15:52:40;;;;;;;7.05;5.20;;;26.00;92.00;;;;;;6206621;28;88860;-68